Time;durP1;ratioP1;P1;durP2;ratioP2;P2;SDS_P1;SDS_P2;PMS_P1;PMS_P2;Temp;Humidity;BMP_temperature;BMP_pressure;BME280_temperature;BME280_humidity;BME280_pressure;Samples;Min_cycle;Max_cycle;Signal;HPM_P1;HPM_P2
2021/07/01 00:02:46;;;;;;;3.45;1.27;;;16.20;99.90;;;16.64;100.00;99835.53;3455645;40;101071;-81
2021/07/01 00:05:57;;;;;;;1.35;1.20;;;16.10;99.90;;;16.59;100.00;99826.34;3445567;40;100743;-81
2021/07/01 00:09:14;;;;;;;1.45;1.25;;;16.10;99.90;;;16.58;100.00;99813.88;3456608;40;100790;-80
2021/07/01 00:12:27;;;;;;;5.15;1.00;;;16.10;99.90;;;16.60;100.00;99811.81;3456111;40;101159;-81
2021/07/01 00:15:42;;;;;;;4.03;1.35;;;16.30;99.90;;;16.59;100.00;99818.25;3456120;40;103017;-82
2021/07/01 00:18:54;;;;;;;1.30;1.10;;;16.00;99.90;;;16.52;100.00;99810.16;3454781;40;102312;-81
2021/07/01 00:22:05;;;;;;;1.33;1.08;;;16.00;99.90;;;16.52;100.00;99802.88;3455635;40;100044;-82
2021/07/01 00:25:18;;;;;;;0.88;0.85;;;16.00;99.90;;;16.56;100.00;99802.47;3455276;40;100036;-80
2021/07/01 00:28:33;;;;;;;1.70;1.10;;;15.90;99.90;;;16.57;100.00;99801.44;3450305;40;103248;-80
2021/07/01 00:31:45;;;;;;;4.50;1.20;;;15.90;99.90;;;16.52;100.00;99797.47;3446638;40;102942;-81
2021/07/01 00:34:56;;;;;;;2.65;1.17;;;15.90;99.90;;;16.51;100.00;99795.81;3461475;39;99922;-81
2021/07/01 00:38:08;;;;;;;1.02;0.90;;;15.90;99.90;;;16.51;100.00;99789.59;3441440;40;101442;-82
2021/07/01 00:41:20;;;;;;;0.80;0.80;;;16.50;99.90;;;16.48;100.00;99790.81;3455840;40;103150;-81
2021/07/01 00:44:33;;;;;;;1.50;1.23;;;16.00;99.90;;;16.51;100.00;99793.13;3455436;40;101566;-83
2021/07/01 00:47:46;;;;;;;2.22;1.20;;;15.90;99.90;;;16.50;100.00;99791.44;3456438;40;99901;-81
2021/07/01 00:50:58;;;;;;;0.80;0.80;;;15.80;99.90;;;16.47;100.00;99788.34;3455595;40;103340;-83
2021/07/01 00:54:10;;;;;;;0.70;0.70;;;16.10;99.90;;;16.48;100.00;99792.69;3454121;40;103342;-82
2021/07/01 00:57:23;;;;;;;0.82;0.82;;;15.80;99.90;;;16.44;100.00;99789.56;3446339;40;102812;-81
2021/07/01 01:03:58;;;;;;;1.00;0.90;;;15.80;99.90;;;16.38;100.00;99784.19;3442889;40;102952;-82
2021/07/01 01:07:10;;;;;;;1.05;0.70;;;15.80;99.90;;;16.40;100.00;99793.75;3454653;40;102965;-81
2021/07/01 01:10:23;;;;;;;0.75;0.75;;;15.80;99.90;;;16.35;100.00;99790.81;3436936;40;100777;-81
2021/07/01 01:13:47;;;;;;;1.40;1.08;;;15.70;99.90;;;16.37;100.00;99786.06;3442127;40;100353;-82
2021/07/01 01:17:21;;;;;;;2.75;1.38;;;15.70;99.90;;;16.30;100.00;99790.63;3450491;40;101780;-82
2021/07/01 01:20:33;;;;;;;1.30;1.20;;;15.70;99.90;;;16.34;100.00;99796.44;3456076;40;101572;-83
2021/07/01 01:23:48;;;;;;;1.73;1.15;;;15.60;99.90;;;16.28;100.00;99789.16;3446332;40;102274;-82
2021/07/01 01:27:00;;;;;;;1.60;1.08;;;15.60;99.90;;;16.19;100.00;99795.81;3447306;40;100119;-82
2021/07/01 01:30:13;;;;;;;1.10;1.00;;;15.60;99.90;;;16.20;100.00;99789.34;3454333;40;103287;-82
2021/07/01 01:33:24;;;;;;;1.20;1.13;;;15.60;99.90;;;16.17;100.00;99793.31;3454206;40;103520;-82
2021/07/01 01:36:39;;;;;;;0.98;0.90;;;15.60;99.90;;;16.10;100.00;99790.59;3464824;39;102770;-82
2021/07/01 01:39:55;;;;;;;3.03;1.43;;;15.60;99.90;;;16.08;100.00;99800.75;3447860;40;100307;-82
2021/07/01 01:43:08;;;;;;;0.82;0.82;;;15.50;99.90;;;16.02;100.00;99796.19;3456191;40;101155;-81
2021/07/01 01:46:21;;;;;;;1.08;0.98;;;15.50;99.90;;;16.03;100.00;99803.25;3454464;40;103222;-81
2021/07/01 01:49:36;;;;;;;3.43;1.20;;;15.50;99.90;;;16.07;100.00;99795.59;3455169;40;102603;-82
2021/07/01 01:52:51;;;;;;;1.53;1.10;;;15.70;99.90;;;16.12;100.00;99793.94;3455212;40;100158;-81
2021/07/01 01:56:05;;;;;;;1.33;1.23;;;15.60;99.90;;;16.09;100.00;99786.22;3494269;39;102933;-81
2021/07/01 01:59:18;;;;;;;5.03;1.00;;;15.60;99.90;;;16.04;100.00;99782.50;3446458;40;103179;-81
2021/07/01 02:02:40;;;;;;;4.43;0.85;;;16.40;99.90;;;15.96;100.00;99775.41;3455679;40;99943;-81
2021/07/01 02:06:01;;;;;;;1.40;1.27;;;15.60;99.90;;;15.92;100.00;99776.06;3456685;40;100178;-83
2021/07/01 02:09:14;;;;;;;0.90;0.90;;;15.50;99.90;;;15.87;100.00;99776.66;3446630;40;102049;-82
2021/07/01 02:12:37;;;;;;;2.63;1.53;;;15.50;99.90;;;15.79;100.00;99783.09;3447202;40;103296;-80
2021/07/01 02:15:50;;;;;;;4.25;1.30;;;15.40;99.90;;;15.73;100.00;99781.19;3443816;40;102604;-83
2021/07/01 02:19:02;;;;;;;4.20;1.70;;;15.30;99.90;;;15.69;100.00;99776.44;3446642;40;100208;-81
2021/07/01 02:22:14;;;;;;;1.40;1.23;;;15.30;99.90;;;15.64;100.00;99778.88;3446642;40;103141;-81
2021/07/01 02:25:27;;;;;;;6.90;1.70;;;15.20;99.90;;;15.58;100.00;99785.91;3455217;40;100930;-82
2021/07/01 02:29:04;;;;;;;2.70;1.13;;;15.10;99.90;;;15.51;100.00;99782.34;3464905;39;101190;-80
2021/07/01 02:32:31;;;;;;;2.92;1.48;;;15.10;99.90;;;15.53;100.00;99774.06;3459565;40;101176;-81
2021/07/01 02:35:43;;;;;;;2.77;1.40;;;15.10;99.90;;;15.47;100.00;99778.38;3487144;40;102987;-82
2021/07/01 02:39:07;;;;;;;4.80;1.17;;;15.00;99.90;;;15.46;100.00;99776.72;3474983;40;101055;-80
2021/07/01 02:42:19;;;;;;;1.43;1.10;;;15.00;99.90;;;15.39;100.00;99784.78;3456545;40;100423;-81
2021/07/01 02:45:33;;;;;;;2.73;1.60;;;14.90;99.90;;;15.36;100.00;99781.66;3454192;40;100133;-80
2021/07/01 02:49:01;;;;;;;1.83;1.27;;;14.90;99.90;;;15.38;100.00;99787.69;3454671;40;101768;-81
2021/07/01 02:52:14;;;;;;;4.33;1.77;;;14.90;99.90;;;15.39;100.00;99790.19;3452764;40;101754;-81
2021/07/01 02:55:26;;;;;;;1.37;1.27;;;14.80;99.90;;;15.44;100.00;99787.72;3456951;40;100503;-82
2021/07/01 02:58:38;;;;;;;1.23;1.13;;;14.80;99.90;;;15.47;100.00;99789.16;3453981;40;100406;-83
2021/07/01 03:02:02;;;;;;;1.33;1.20;;;14.90;99.90;;;15.50;100.00;99790.63;3456401;40;100991;-81
2021/07/01 03:05:21;;;;;;;1.57;1.23;;;14.90;99.90;;;15.51;100.00;99795.81;3445741;40;102477;-82
2021/07/01 03:08:33;;;;;;;0.97;0.90;;;15.60;99.90;;;15.45;100.00;99797.44;3489509;39;102531;-82
2021/07/01 03:11:46;;;;;;;0.83;0.83;;;15.00;99.90;;;15.47;100.00;99799.94;3447042;40;99953;-83
2021/07/01 03:14:58;;;;;;;1.40;1.30;;;15.00;99.90;;;15.52;100.00;99785.88;3446547;40;102936;-83
2021/07/01 03:18:12;;;;;;;1.40;1.23;;;15.00;99.90;;;15.55;100.00;99783.63;3454794;39;103276;-82
2021/07/01 03:21:41;;;;;;;1.27;1.10;;;15.10;99.90;;;15.61;100.00;99788.22;3461514;39;100750;-83
2021/07/01 03:24:53;;;;;;;1.20;1.10;;;15.10;99.90;;;15.70;100.00;99796.97;3453755;40;100169;-81
2021/07/01 03:28:05;;;;;;;1.47;1.07;;;15.20;99.90;;;15.72;100.00;99795.72;3448545;40;102880;-81
2021/07/01 03:31:18;;;;;;;0.90;0.60;;;15.30;99.90;;;15.77;100.00;99785.16;3446999;40;101971;-83
2021/07/01 03:34:33;;;;;;;1.77;1.00;;;15.40;99.90;;;15.78;100.00;99783.28;3446856;40;102776;-81
2021/07/01 03:37:45;;;;;;;1.23;0.90;;;15.80;99.90;;;15.84;100.00;99787.84;3448570;40;100573;-82
2021/07/01 03:41:06;;;;;;;3.63;1.27;;;15.40;99.90;;;15.84;100.00;99768.13;3455671;40;101381;-81
2021/07/01 03:44:18;;;;;;;5.60;1.27;;;15.40;99.90;;;15.89;100.00;99766.50;3454275;40;103550;-86
2021/07/01 03:47:30;;;;;;;1.83;1.23;;;16.30;99.90;;;15.94;100.00;99774.00;3450435;40;100245;-81
2021/07/01 03:50:44;;;;;;;1.42;1.05;;;15.60;99.90;;;15.95;100.00;99776.44;3446364;40;100133;-84
2021/07/01 03:53:56;;;;;;;1.77;1.20;;;15.60;99.90;;;15.96;100.00;99764.63;3455316;40;100656;-83
2021/07/01 03:57:08;;;;;;;1.20;1.10;;;15.70;99.90;;;16.11;100.00;99770.66;3454414;40;103332;-82
2021/07/01 04:00:32;;;;;;;1.42;1.33;;;16.50;99.90;;;16.14;100.00;99780.22;3455947;40;101507;-82
2021/07/01 04:03:45;;;;;;;1.67;1.35;;;15.80;99.90;;;16.17;100.00;99777.97;3453685;40;100154;-82
2021/07/01 04:06:58;;;;;;;5.90;1.25;;;15.80;99.90;;;16.20;100.00;99778.56;3455134;40;103041;-83
2021/07/01 04:10:13;;;;;;;1.38;1.17;;;15.80;99.90;;;16.25;100.00;99774.22;3459696;39;101940;-81
2021/07/01 04:13:34;;;;;;;1.30;1.00;;;15.90;99.90;;;16.19;100.00;99769.66;3476332;39;100190;-82
2021/07/01 04:16:55;;;;;;;4.88;1.30;;;15.90;99.90;;;16.25;100.00;99776.91;3460014;40;100094;-81
2021/07/01 04:20:17;;;;;;;2.00;1.15;;;16.00;99.90;;;16.24;100.00;99769.03;3457520;40;100518;-83
2021/07/01 04:23:40;;;;;;;3.33;1.67;;;17.00;99.90;;;16.32;100.00;99760.72;3456080;40;100815;-82
2021/07/01 04:27:03;;;;;;;3.05;1.23;;;16.00;99.90;;;16.31;100.00;99768.00;3456483;40;100671;-82
2021/07/01 04:30:17;;;;;;;7.90;1.67;;;16.60;99.90;;;16.31;100.00;99762.59;3446570;40;100227;-82
2021/07/01 04:33:55;;;;;;;1.85;1.30;;;16.10;99.90;;;16.39;100.00;99759.69;3480407;40;102016;-81
2021/07/01 04:37:08;;;;;;;1.63;1.40;;;16.10;99.90;;;16.47;100.00;99759.47;3454439;40;102836;-81
2021/07/01 04:40:29;;;;;;;2.67;1.05;;;16.20;99.90;;;16.43;100.00;99755.53;3454526;40;102595;-84
2021/07/01 04:43:42;;;;;;;4.03;1.58;;;16.20;99.90;;;16.46;100.00;99755.09;3453346;40;100229;-85
2021/07/01 04:46:55;;;;;;;2.05;1.58;;;16.30;99.90;;;16.48;100.00;99754.88;3453526;40;103310;-82
2021/07/01 04:50:07;;;;;;;2.65;1.17;;;16.30;99.90;;;16.50;100.00;99764.44;3454340;40;103484;-81
2021/07/01 04:53:29;;;;;;;2.40;1.48;;;16.40;99.90;;;16.53;100.00;99763.22;3455967;40;100130;-81
2021/07/01 05:00:12;;;;;;;2.17;1.55;;;16.40;99.90;;;16.55;100.00;99769.22;3493506;40;103180;-82
2021/07/01 05:03:51;;;;;;;1.98;1.77;;;17.50;99.90;;;16.68;100.00;99771.13;3445135;40;100705;-82
2021/07/01 05:07:04;;;;;;;4.25;2.03;;;16.50;99.90;;;16.74;100.00;99779.19;3480877;39;102537;-82
2021/07/01 05:10:19;;;;;;;3.75;2.05;;;16.80;99.90;;;16.74;100.00;99781.06;3451296;40;100381;-81
2021/07/01 05:13:59;;;;;;;7.70;1.85;;;16.60;99.90;;;16.77;100.00;99781.50;3444984;40;101794;-81
2021/07/01 05:17:11;;;;;;;1.88;1.60;;;16.70;99.90;;;16.94;100.00;99786.47;3441613;40;102961;-80
2021/07/01 05:20:24;;;;;;;7.03;2.03;;;16.80;99.90;;;16.87;100.00;99792.69;3427842;40;100356;-81
2021/07/01 05:23:58;;;;;;;2.30;1.58;;;16.80;99.90;;;16.92;100.00;99792.06;3457477;40;100715;-82
2021/07/01 05:27:10;;;;;;;2.55;1.98;;;16.90;99.90;;;16.98;100.00;99804.72;3436729;40;100777;-81
2021/07/01 05:30:34;;;;;;;3.17;2.30;;;17.00;99.90;;;17.00;100.00;99802.66;3437141;40;101481;-81
2021/07/01 05:33:57;;;;;;;2.58;2.15;;;17.00;99.90;;;17.19;100.00;99800.91;3437713;40;100099;-82
2021/07/01 05:37:09;;;;;;;2.90;2.22;;;17.10;99.90;;;17.42;100.00;99803.97;3435195;40;99999;-81
2021/07/01 05:40:27;;;;;;;4.00;2.80;;;17.20;99.90;;;17.52;100.00;99796.22;3450773;40;102730;-81
2021/07/01 05:43:39;;;;;;;6.55;2.97;;;17.40;99.90;;;17.39;100.00;99800.88;3437117;40;101214;-81
2021/07/01 05:47:04;;;;;;;2.90;2.45;;;17.50;99.90;;;17.26;100.00;99809.03;3438632;40;101660;-82
2021/07/01 05:50:16;;;;;;;4.43;2.22;;;17.50;99.90;;;17.27;100.00;99806.09;3434788;40;101188;-81
2021/07/01 05:53:30;;;;;;;3.17;2.22;;;17.60;99.90;;;17.38;100.00;99815.44;3435041;40;103311;-81
2021/07/01 05:56:42;;;;;;;4.35;2.33;;;17.60;99.90;;;17.19;100.00;99814.44;3436394;40;103675;-81
2021/07/01 05:59:53;;;;;;;4.22;3.00;;;17.60;99.90;;;17.17;100.00;99816.53;3435644;40;102590;-82
2021/07/01 06:03:08;;;;;;;4.45;2.83;;;17.50;99.90;;;17.30;100.00;99824.63;3442260;40;99983;-81
2021/07/01 06:06:29;;;;;;;4.30;2.58;;;17.50;99.90;;;17.27;100.00;99821.50;3436333;40;103244;-81
2021/07/01 06:09:55;;;;;;;5.05;3.40;;;17.50;99.90;;;17.12;100.00;99830.69;3437008;40;101541;-81
2021/07/01 06:13:07;;;;;;;4.40;2.92;;;17.50;99.90;;;17.11;100.00;99830.88;3437729;40;100575;-81
2021/07/01 06:16:20;;;;;;;3.50;2.78;;;17.40;99.90;;;17.18;100.00;99837.13;3443710;40;100277;-80
2021/07/01 06:19:34;;;;;;;4.57;3.85;;;17.40;99.90;;;17.20;100.00;99829.59;3446862;40;103152;-83
2021/07/01 06:22:46;;;;;;;6.95;3.28;;;17.40;99.90;;;17.30;100.00;99835.44;3448059;40;102178;-82
2021/07/01 06:25:59;;;;;;;4.93;2.92;;;17.40;99.90;;;17.34;100.00;99835.81;3455581;40;100708;-82
2021/07/01 06:29:14;;;;;;;5.15;2.88;;;17.40;99.90;;;17.30;100.00;99831.91;3446148;40;100150;-81
2021/07/01 06:32:26;;;;;;;6.57;3.13;;;17.40;99.90;;;17.33;100.00;99847.66;3456480;40;101189;-81
2021/07/01 06:35:41;;;;;;;4.63;3.05;;;17.50;99.90;;;17.36;100.00;99841.84;3447283;40;103003;-83
2021/07/01 06:38:57;;;;;;;5.22;3.40;;;17.50;99.90;;;17.34;100.00;99843.94;3447387;40;103167;-82
2021/07/01 06:42:33;;;;;;;5.50;3.95;;;17.30;99.90;;;17.34;100.00;99854.75;3466917;40;100335;-81
2021/07/01 06:46:13;;;;;;;3.97;3.30;;;17.40;99.90;;;17.40;100.00;99854.75;3433861;40;101965;-83
2021/07/01 06:49:39;;;;;;;5.68;3.70;;;17.40;99.90;;;17.46;100.00;99853.88;3456478;40;100699;-82
2021/07/01 06:53:04;;;;;;;5.43;3.35;;;17.40;99.90;;;17.47;100.00;99854.72;3457126;40;100257;-80
2021/07/01 06:56:39;;;;;;;4.93;3.50;;;17.40;99.90;;;17.47;100.00;99857.41;3456303;40;100509;-81
2021/07/01 06:59:50;;;;;;;5.55;3.70;;;17.70;99.90;;;17.50;100.00;99859.69;3453491;40;100926;-81
2021/07/01 07:03:03;;;;;;;5.38;4.30;;;17.50;99.90;;;17.50;100.00;99857.81;3465598;40;101253;-81
2021/07/01 07:06:17;;;;;;;6.65;4.50;;;17.50;99.90;;;17.46;100.00;99877.38;3466475;39;100191;-81
2021/07/01 07:09:31;;;;;;;5.28;4.03;;;17.70;99.90;;;17.39;100.00;99871.19;3459215;40;100242;-83
2021/07/01 07:12:46;;;;;;;8.13;5.05;;;17.60;99.90;;;17.36;100.00;99885.13;3458728;40;101113;-81
2021/07/01 07:15:58;;;;;;;7.10;4.80;;;17.50;99.90;;;17.40;100.00;99894.47;3436803;40;101766;-82
2021/07/01 07:19:14;;;;;;;6.05;4.70;;;16.90;99.90;;;17.31;100.00;99898.47;3449320;40;102594;-81
2021/07/01 07:22:28;;;;;;;6.03;5.10;;;16.10;99.90;;;17.20;100.00;99903.44;3446400;40;100051;-83
2021/07/01 07:25:46;;;;;;;6.75;4.97;;;16.90;99.90;;;17.21;100.00;99909.69;3449566;40;100939;-83
2021/07/01 07:29:02;;;;;;;8.00;5.78;;;16.90;99.90;;;17.23;100.00;99916.53;3449241;40;101124;-82
2021/07/01 07:32:18;;;;;;;9.38;6.30;;;16.80;99.90;;;17.21;100.00;99918.63;3447262;40;100159;-81
2021/07/01 07:35:30;;;;;;;6.30;4.82;;;16.80;99.90;;;17.31;100.00;99933.63;3444087;40;100167;-81
2021/07/01 07:38:45;;;;;;;8.40;5.40;;;16.80;99.90;;;17.37;100.00;99938.16;3445880;40;100865;-82
2021/07/01 07:41:59;;;;;;;8.55;5.68;;;16.80;99.90;;;17.40;100.00;99924.22;3445999;40;101231;-82
2021/07/01 07:45:12;;;;;;;7.40;5.63;;;16.80;99.90;;;17.45;100.00;99927.94;3445965;40;100501;-81
2021/07/01 07:48:24;;;;;;;8.77;5.78;;;17.70;99.90;;;17.59;100.00;99923.34;3444766;40;100343;-80
2021/07/01 07:51:42;;;;;;;6.75;5.70;;;18.00;99.90;;;17.68;100.00;99922.09;3445118;40;101099;-81
2021/07/01 07:54:58;;;;;;;9.77;6.50;;;17.60;99.90;;;17.73;100.00;99922.28;3445734;40;101105;-81
2021/07/01 07:58:14;;;;;;;6.93;5.57;;;17.10;99.90;;;17.74;100.00;99921.25;3446041;40;100340;-80
2021/07/01 08:01:27;;;;;;;9.57;6.57;;;17.60;99.90;;;17.70;100.00;99913.75;3453760;39;100292;-82
2021/07/01 08:04:43;;;;;;;8.90;6.90;;;17.50;99.90;;;17.64;100.00;99904.63;3465263;39;101803;-80
2021/07/01 08:07:55;;;;;;;6.70;5.65;;;17.80;99.90;;;17.65;100.00;99902.75;3467399;39;99738;-83
2021/07/01 08:11:09;;;;;;;9.82;5.85;;;17.20;99.90;;;17.53;100.00;99905.25;3457592;39;101676;-81
2021/07/01 08:14:22;;;;;;;8.00;6.55;;;17.20;99.90;;;17.52;100.00;99909.00;3446569;40;100104;-83
2021/07/01 08:17:35;;;;;;;8.95;6.63;;;17.20;99.90;;;17.48;100.00;99908.59;3444767;40;102486;-82
2021/07/01 08:20:48;;;;;;;7.13;5.65;;;17.10;99.90;;;17.52;100.00;99909.84;3446369;40;100988;-81
2021/07/01 08:24:02;;;;;;;6.75;5.55;;;17.20;99.90;;;17.46;100.00;99921.50;3445577;40;100368;-80
2021/07/01 08:27:14;;;;;;;8.63;5.85;;;17.20;99.90;;;17.36;100.00;99912.16;3445170;40;100205;-82
2021/07/01 08:30:30;;;;;;;5.18;4.25;;;17.20;99.90;;;17.38;100.00;99929.84;3448037;40;101169;-83
2021/07/01 08:33:51;;;;;;;4.00;3.42;;;17.20;99.90;;;17.16;100.00;99940.06;3446594;40;103143;-83
2021/07/01 08:37:04;;;;;;;4.07;2.70;;;17.80;99.90;;;17.08;100.00;99937.56;3451550;40;100366;-83
2021/07/01 08:40:17;;;;;;;3.10;2.58;;;17.20;99.90;;;17.31;100.00;99933.63;3448940;40;100297;-83
2021/07/01 08:43:34;;;;;;;3.25;2.63;;;17.10;99.90;;;17.24;100.00;99930.91;3447174;40;101022;-83
2021/07/01 08:47:02;;;;;;;4.43;2.30;;;17.20;99.90;;;17.59;100.00;99947.69;3445699;40;103248;-82
2021/07/01 08:50:23;;;;;;;3.42;2.30;;;17.20;99.90;;;17.42;100.00;99941.06;3446658;40;100580;-82
2021/07/01 08:54:03;;;;;;;3.13;2.25;;;17.50;99.90;;;17.45;100.00;99955.00;3440910;40;100105;-81
2021/07/01 08:57:21;;;;;;;2.00;1.80;;;17.30;99.90;;;17.26;100.00;99946.91;3446284;40;103381;-80
2021/07/01 09:00:38;;;;;;;3.50;2.33;;;17.30;99.90;;;17.04;100.00;99957.13;3450269;40;103532;-83
2021/07/01 09:04:00;;;;;;;3.80;2.28;;;17.30;99.90;;;16.82;100.00;99959.16;3455929;40;100085;-83
2021/07/01 09:07:15;;;;;;;2.67;2.00;;;17.10;99.90;;;16.73;100.00;99976.63;3460358;40;99994;-83
2021/07/01 09:10:31;;;;;;;2.22;1.70;;;17.00;99.90;;;16.79;100.00;99984.75;3465815;39;100312;-84
2021/07/01 09:13:52;;;;;;;5.53;2.28;;;16.90;99.90;;;16.74;100.00;99984.53;3464962;39;100246;-82
2021/07/01 09:17:04;;;;;;;3.42;2.15;;;17.20;99.90;;;16.88;100.00;99988.09;3447379;40;103075;-81
2021/07/01 09:20:22;;;;;;;6.03;3.95;;;16.70;99.90;;;17.18;100.00;100000.16;3457750;40;99931;-83
2021/07/01 09:23:42;;;;;;;3.45;3.00;;;16.70;99.90;;;17.38;100.00;100004.75;3451085;40;103376;-84
2021/07/01 09:26:57;;;;;;;4.55;3.20;;;16.70;99.90;;;17.45;100.00;100000.97;3456217;40;103334;-83
2021/07/01 09:30:10;;;;;;;4.57;3.00;;;16.90;99.90;;;17.66;100.00;99999.97;3456397;40;100629;-83
2021/07/01 09:33:23;;;;;;;4.38;3.15;;;18.10;99.90;;;18.01;100.00;100005.06;3460565;40;101215;-82
2021/07/01 09:36:38;;;;;;;4.80;3.58;;;17.10;99.90;;;18.05;100.00;99992.78;3457687;40;101460;-83
2021/07/01 09:39:51;;;;;;;4.55;3.80;;;17.30;99.90;;;18.17;100.00;99994.59;3456778;40;101018;-83
2021/07/01 09:43:06;;;;;;;4.38;3.00;;;18.30;99.90;;;17.82;100.00;99979.69;3454618;40;102402;-82
2021/07/01 09:46:20;;;;;;;5.47;3.70;;;17.60;99.90;;;17.84;100.00;99974.91;3455817;40;100507;-85
2021/07/01 09:49:39;;;;;;;4.50;3.45;;;17.70;99.90;;;17.89;100.00;99977.81;3454335;40;101180;-85
2021/07/01 09:52:58;;;;;;;5.15;3.40;;;17.70;99.90;;;17.62;100.00;99981.59;3461317;40;101388;-83
2021/07/01 09:56:13;;;;;;;12.43;3.70;;;17.60;99.90;;;17.42;100.00;99992.47;3450168;40;100093;-84
2021/07/01 09:58:52;;;;;;;7.38;3.95;;;17.50;99.90;;;17.31;100.00;99993.91;3595550;22;106952;-85
2021/07/01 10:01:32;;;;;;;6.10;4.05;;;17.20;99.90;;;17.47;100.00;100003.47;3495005;39;100689;-85
2021/07/01 10:04:01;;;;;;;6.25;4.60;;;17.20;99.90;;;17.58;100.00;100003.66;3521197;39;102694;-83
2021/07/01 10:06:29;;;;;;;4.75;4.07;;;17.20;99.90;;;17.60;100.00;100015.09;3491339;39;99728;-81
2021/07/01 10:08:57;;;;;;;9.65;4.85;;;17.30;99.90;;;17.78;100.00;100022.63;3486049;39;100139;-85
2021/07/01 10:11:38;;;;;;;6.70;4.80;;;17.30;99.90;;;17.68;100.00;100022.19;3535905;22;105523;-85
2021/07/01 10:14:09;;;;;;;5.55;4.43;;;17.30;99.90;;;17.49;100.00;100012.22;3518649;23;104504;-83
2021/07/01 10:16:37;;;;;;;4.78;4.32;;;18.50;99.90;;;17.66;100.00;100018.91;3524810;39;100458;-84
2021/07/01 10:19:07;;;;;;;6.18;4.82;;;17.40;99.90;;;17.80;100.00;100011.59;3519178;39;100378;-85
2021/07/01 10:21:36;;;;;;;7.07;5.72;;;17.40;99.90;;;17.67;100.00;100007.03;3509793;40;101229;-82
2021/07/01 10:24:14;;;;;;;5.78;4.18;;;17.40;99.90;;;17.66;100.00;100001.81;3500179;40;103308;-83
2021/07/01 10:26:48;;;;;;;6.63;4.55;;;17.40;99.90;;;18.09;100.00;100005.66;3511861;40;100534;-85
2021/07/01 10:29:17;;;;;;;9.70;4.45;;;17.40;99.90;;;18.24;100.00;99995.41;3513344;39;100283;-85
2021/07/01 10:31:55;;;;;;;5.55;4.85;;;17.40;99.90;;;18.37;100.00;99989.09;3505453;40;102986;-85
2021/07/01 10:34:24;;;;;;;9.20;5.65;;;17.50;99.90;;;18.58;100.00;99991.50;3497958;40;103077;-81
2021/07/01 10:37:17;;;;;;;6.22;4.15;;;17.80;99.90;;;19.23;100.00;99980.41;3511299;40;100488;-86
2021/07/01 10:39:47;;;;;;;4.43;3.75;;;18.10;99.90;;;18.94;100.00;99987.31;3507226;40;100275;-83
2021/07/01 10:42:15;;;;;;;5.60;4.32;;;18.40;99.90;;;18.58;100.00;99971.69;3509925;40;100970;-82
2021/07/01 10:44:43;;;;;;;3.53;2.95;;;18.50;99.90;;;18.59;100.00;99974.19;3514926;40;100965;-85
2021/07/01 10:47:27;;;;;;;3.03;2.53;;;18.50;99.90;;;18.58;100.00;99969.81;3509146;40;100343;-83
2021/07/01 10:49:55;;;;;;;5.45;3.20;;;18.70;99.90;;;18.65;100.00;99953.53;3507158;40;100139;-84
2021/07/01 10:52:36;;;;;;;3.20;2.22;;;18.80;99.90;;;18.86;100.00;99960.47;3498423;40;102938;-83
2021/07/01 10:55:06;;;;;;;3.92;2.67;;;18.80;99.90;;;19.14;100.00;99943.78;3497687;39;103562;-81
2021/07/01 10:57:35;;;;;;;4.47;2.38;;;19.00;99.90;;;19.28;100.00;99931.75;3499080;40;101602;-85
2021/07/01 11:00:04;;;;;;;1.92;1.83;;;19.30;99.90;;;18.86;100.00;99915.22;3500477;39;100194;-80
2021/07/01 11:02:33;;;;;;;2.05;1.85;;;19.50;99.90;;;19.14;100.00;99920.19;3500161;40;101036;-81
2021/07/01 11:05:07;;;;;;;2.65;1.77;;;19.70;99.90;;;19.52;100.00;99914.63;3498339;40;101639;-83
2021/07/01 11:07:43;;;;;;;2.05;1.80;;;20.00;99.90;;;19.17;100.00;99917.03;3506067;39;102286;-81
2021/07/01 11:10:13;;;;;;;3.35;1.98;;;20.00;99.90;;;19.21;100.00;99917.41;3488288;40;100126;-81
2021/07/01 11:12:46;;;;;;;2.08;1.52;;;20.20;99.90;;;19.12;100.00;99905.19;3499889;40;100928;-82
2021/07/01 11:15:18;;;;;;;2.15;1.90;;;20.20;99.90;;;19.51;100.00;99899.41;3499574;40;101081;-81
2021/07/01 11:17:45;;;;;;;1.65;1.55;;;20.30;99.90;;;20.07;100.00;99914.59;3497964;40;102591;-84
2021/07/01 11:20:17;;;;;;;1.98;1.77;;;20.40;99.90;;;19.14;100.00;99909.34;3497442;40;100119;-81
2021/07/01 11:22:48;;;;;;;2.20;1.65;;;20.50;99.90;;;19.13;100.00;99909.56;3497356;40;101203;-82
2021/07/01 11:25:27;;;;;;;2.17;1.67;;;20.30;99.90;;;19.31;100.00;99915.00;3497293;40;101459;-83
2021/07/01 11:28:14;;;;;;;2.08;1.35;;;20.60;99.90;;;19.43;100.00;99910.50;3497255;40;100477;-80
2021/07/01 11:30:53;;;;;;;1.67;1.25;;;20.70;99.90;;;19.91;100.00;99909.78;3499475;40;100312;-82
2021/07/01 11:33:22;;;;;;;1.60;1.50;;;20.90;99.90;;;20.11;100.00;99902.22;3497547;40;100574;-81
2021/07/01 11:35:51;;;;;;;2.00;1.80;;;21.00;99.90;;;20.36;100.00;99896.69;3500413;40;100547;-80
2021/07/01 11:38:31;;;;;;;1.48;1.10;;;21.30;99.90;;;20.83;100.00;99894.06;3497266;40;101462;-82
2021/07/01 11:41:04;;;;;;;2.25;1.30;;;21.50;99.90;;;20.86;100.00;99897.16;3502851;39;100769;-83
2021/07/01 11:43:32;;;;;;;1.92;1.40;;;21.80;99.90;;;20.25;100.00;99890.13;3500122;40;102541;-80
2021/07/01 11:46:00;;;;;;;2.35;1.60;;;21.90;99.90;;;20.27;100.00;99901.59;3496422;40;101870;-82
2021/07/01 11:48:30;;;;;;;1.45;1.30;;;21.90;99.90;;;20.36;100.00;99902.94;3486138;40;101906;-80
2021/07/01 11:51:00;;;;;;;3.22;1.80;;;21.90;99.90;;;20.44;100.00;99899.06;3494256;40;99961;-81
2021/07/01 11:53:28;;;;;;;1.35;1.10;;;22.00;99.90;;;21.32;100.00;99896.38;3495683;40;100951;-81
2021/07/01 11:56:00;;;;;;;4.10;1.52;;;22.10;99.90;;;20.92;100.00;99887.22;3493903;40;103150;-81
2021/07/01 11:58:31;;;;;;;1.17;1.00;;;22.40;99.90;;;20.69;100.00;99896.16;3485922;40;100261;-81
2021/07/01 12:00:59;;;;;;;1.30;1.20;;;23.70;99.90;;;20.61;100.00;99891.06;3496058;40;99904;-82
2021/07/01 12:03:29;;;;;;;0.80;0.80;;;22.80;99.90;;;20.32;100.00;99901.72;3484922;40;103221;-82
2021/07/01 12:05:57;;;;;;;2.60;1.20;;;23.30;99.90;;;20.36;100.00;99902.94;3495470;40;101087;-79
2021/07/01 12:08:25;;;;;;;1.23;1.05;;;22.60;99.90;;;20.30;100.00;99905.72;3494894;40;100468;-81
2021/07/01 12:11:06;;;;;;;1.23;1.13;;;22.50;99.90;;;20.37;100.00;99910.03;3492897;40;100400;-81
2021/07/01 12:13:41;;;;;;;2.13;1.60;;;22.40;99.90;;;20.46;100.00;99913.25;3495401;40;101142;-83
2021/07/01 12:16:10;;;;;;;1.67;1.17;;;22.70;99.90;;;20.33;100.00;99921.56;3494823;40;101557;-80
2021/07/01 12:18:58;;;;;;;2.97;1.35;;;22.30;99.90;;;20.19;100.00;99915.47;3494897;40;100222;-82
2021/07/01 12:21:29;;;;;;;0.82;0.77;;;22.30;99.90;;;20.18;100.00;99921.13;3500590;39;100095;-84
2021/07/01 12:23:59;;;;;;;1.48;1.20;;;22.50;99.90;;;20.57;100.00;99917.88;3493237;40;103147;-82
2021/07/01 12:26:44;;;;;;;1.60;1.08;;;22.20;99.90;;;20.57;100.00;99920.59;3513978;40;101022;-82
2021/07/01 12:29:20;;;;;;;2.60;2.30;;;22.20;99.90;;;20.23;100.00;99913.97;3499985;40;100119;-80
2021/07/01 12:31:47;;;;;;;2.35;2.13;;;22.10;99.90;;;20.58;100.00;99910.56;3495495;40;100024;-81
2021/07/01 12:34:21;;;;;;;1.92;1.63;;;22.10;99.90;;;20.18;100.00;99910.25;3494627;40;101484;-82
2021/07/01 12:37:03;;;;;;;3.97;2.33;;;22.10;99.90;;;20.85;100.00;99913.69;3493109;40;103603;-83
2021/07/01 12:39:30;;;;;;;2.38;1.67;;;22.30;99.90;;;20.61;100.00;99910.94;3492611;40;102727;-82
2021/07/01 12:42:23;;;;;;;1.45;0.90;;;22.40;99.90;;;20.72;100.00;99903.88;3500312;39;100192;-82
2021/07/01 12:44:51;;;;;;;1.15;1.02;;;22.40;99.90;;;21.02;100.00;99906.50;3496286;40;101146;-81
2021/07/01 12:47:31;;;;;;;3.50;1.20;;;22.50;99.90;;;20.84;100.00;99912.88;3496018;40;100725;-81